createdAt,value
2018-12-17T00:01:48.373Z,27.33
2018-12-17T00:04:19.632Z,27.40
2018-12-17T00:06:51.581Z,25.13
2018-12-17T00:09:20.781Z,25.53
2018-12-17T00:11:51.133Z,26.90
2018-12-17T00:14:20.309Z,25.77
2018-12-17T00:16:49.521Z,25.97
2018-12-17T00:19:19.218Z,26.23
2018-12-17T00:21:48.944Z,26.70
2018-12-17T00:24:18.650Z,25.30
2018-12-17T00:26:47.880Z,24.70
2018-12-17T00:29:19.072Z,26.53
2018-12-17T00:31:48.243Z,26.70
2018-12-17T00:34:17.463Z,27.90
2018-12-17T00:36:47.275Z,28.60
2018-12-17T00:39:17.294Z,27.97
2018-12-17T00:41:46.445Z,27.60
2018-12-17T00:44:15.582Z,29.40
2018-12-17T00:46:45.090Z,28.20
2018-12-17T00:49:14.564Z,28.13
2018-12-17T00:51:43.687Z,29.67
2018-12-17T00:54:12.902Z,28.87
2018-12-17T00:56:43.497Z,27.33
2018-12-17T00:59:12.921Z,27.33
2018-12-17T01:01:42.151Z,28.07
2018-12-17T01:04:12.450Z,28.07
2018-12-17T01:06:42.371Z,26.63
2018-12-17T01:09:14.797Z,27.83
2018-12-17T01:11:44.210Z,28.60
2018-12-17T01:14:13.897Z,26.97
2018-12-17T01:16:44.072Z,27.97
2018-12-17T01:19:13.256Z,28.47
2018-12-17T01:21:43.067Z,27.93
2018-12-17T01:24:12.227Z,27.77
2018-12-17T01:26:41.534Z,26.57
2018-12-17T01:29:11.555Z,29.97
2018-12-17T01:38:39.635Z,25.90
2018-12-17T01:41:09.058Z,26.60
2018-12-17T01:43:38.658Z,26.50
2018-12-17T01:46:07.839Z,28.00
2018-12-17T01:48:37.068Z,27.10
2018-12-17T01:51:06.548Z,26.50
2018-12-17T01:53:37.444Z,29.93
2018-12-17T01:56:06.680Z,26.93
2018-12-17T01:58:35.910Z,28.47
2018-12-17T02:01:05.928Z,28.87
2018-12-17T02:03:35.813Z,28.43
2018-12-17T02:06:06.729Z,29.20
2018-12-17T02:08:37.170Z,28.87
2018-12-17T02:11:06.763Z,28.67
2018-12-17T02:13:37.193Z,27.80
2018-12-17T02:16:06.695Z,26.67
2018-12-17T02:18:35.846Z,26.00
2018-12-17T02:21:05.007Z,26.13
2018-12-17T02:23:34.717Z,28.27
2018-12-17T02:26:04.357Z,28.20
2018-12-17T02:28:36.228Z,25.80
2018-12-17T02:31:05.178Z,29.93
2018-12-17T02:33:34.529Z,28.30
2018-12-17T02:36:05.769Z,25.80
2018-12-17T02:38:35.335Z,27.27
2018-12-17T02:41:04.585Z,27.60
2018-12-17T02:43:33.705Z,26.77
2018-12-17T02:46:03.849Z,28.40
2018-12-17T02:48:33.132Z,28.27
2018-12-17T02:51:03.006Z,27.27
2018-12-17T02:53:32.429Z,27.43
2018-12-17T02:56:01.923Z,27.83
2018-12-17T02:58:31.636Z,26.53
2018-12-17T03:01:00.794Z,27.33
2018-12-17T03:03:30.537Z,29.43
2018-12-17T03:05:59.692Z,27.93
2018-12-17T03:08:29.257Z,29.23
2018-12-17T03:10:58.689Z,27.60
2018-12-17T03:13:27.881Z,26.47
2018-12-17T03:16:00.864Z,27.40
2018-12-17T03:18:30.808Z,26.80
2018-12-17T03:21:00.403Z,28.67
2018-12-17T03:23:30.211Z,26.83
2018-12-17T03:26:02.125Z,28.77
2018-12-17T03:28:31.285Z,28.37
2018-12-17T03:31:00.472Z,26.67
2018-12-17T03:33:29.639Z,28.20
2018-12-17T03:36:02.559Z,27.87
2018-12-17T03:38:32.973Z,28.13
2018-12-17T03:41:02.536Z,27.97
2018-12-17T03:43:32.168Z,26.23
2018-12-17T03:46:01.878Z,28.23
2018-12-17T03:48:31.309Z,28.27
2018-12-17T03:51:01.050Z,27.20
2018-12-17T03:53:30.970Z,28.37
2018-12-17T03:56:00.581Z,27.87
2018-12-17T03:58:29.834Z,28.73
2018-12-17T04:00:59.807Z,27.20
2018-12-17T04:03:29.332Z,26.03
2018-12-17T04:05:59.029Z,25.90
2018-12-17T04:08:28.677Z,25.07
2018-12-17T04:10:58.209Z,26.20
2018-12-17T04:13:27.743Z,26.00
2018-12-17T04:15:57.544Z,26.47
2018-12-17T04:18:27.611Z,28.23
2018-12-17T04:20:57.061Z,27.30
2018-12-17T04:23:26.323Z,27.77
2018-12-17T04:25:57.622Z,26.93
2018-12-17T04:28:26.777Z,24.80
2018-12-17T04:30:56.024Z,25.07
2018-12-17T04:33:25.169Z,25.60
2018-12-17T04:35:54.262Z,26.87
2018-12-17T04:38:23.788Z,24.70
2018-12-17T04:40:52.967Z,23.87
2018-12-17T04:43:22.268Z,24.13
2018-12-17T04:45:51.803Z,25.13
2018-12-17T04:48:21.346Z,22.90
2018-12-17T04:50:50.680Z,25.67
2018-12-17T04:53:23.303Z,26.27
2018-12-17T04:55:52.797Z,25.90
2018-12-17T04:58:24.051Z,25.30
2018-12-17T05:00:53.538Z,24.47
2018-12-17T05:03:22.687Z,27.50
2018-12-17T05:05:52.421Z,27.33
2018-12-17T05:08:21.580Z,24.73
2018-12-17T05:10:50.825Z,23.93
2018-12-17T05:13:20.683Z,25.83
2018-12-17T05:15:49.885Z,24.50
2018-12-17T05:18:19.516Z,22.37
2018-12-17T05:20:49.079Z,22.53
2018-12-17T05:23:18.976Z,22.13
2018-12-17T05:25:48.157Z,22.23
2018-12-17T05:28:17.376Z,23.10
2018-12-17T05:30:46.512Z,22.70
2018-12-17T05:33:16.625Z,22.87
2018-12-17T05:35:46.418Z,21.07
2018-12-17T05:38:17.267Z,25.43
2018-12-17T05:40:47.011Z,22.93
2018-12-17T05:43:16.441Z,23.87
2018-12-17T05:45:46.349Z,22.10
2018-12-17T05:48:15.657Z,19.53
2018-12-17T05:50:44.972Z,18.83
2018-12-17T05:53:14.084Z,19.97
2018-12-17T05:55:44.317Z,20.00
2018-12-17T05:58:14.000Z,19.27
2018-12-17T06:00:44.171Z,18.20
2018-12-17T06:03:14.546Z,16.27
2018-12-17T06:05:44.647Z,15.83
2018-12-17T06:08:13.843Z,16.50
2018-12-17T06:10:43.067Z,15.50
2018-12-17T06:13:12.187Z,14.80
2018-12-17T06:15:42.014Z,15.67
2018-12-17T06:18:11.300Z,15.70
2018-12-17T06:20:40.479Z,14.80
2018-12-17T06:23:09.728Z,14.60
2018-12-17T06:25:38.862Z,14.03
2018-12-17T06:28:08.169Z,15.50
2018-12-17T06:30:38.234Z,14.13
2018-12-17T06:33:15.483Z,14.23
2018-12-17T06:35:40.926Z,13.47
2018-12-17T06:38:10.202Z,13.93
2018-12-17T06:40:39.984Z,13.73
2018-12-17T06:43:09.826Z,13.70
2018-12-17T06:45:39.382Z,14.40
2018-12-17T06:48:09.252Z,13.73
2018-12-17T06:50:38.987Z,13.73
2018-12-17T06:53:08.132Z,12.80
2018-12-17T06:55:37.265Z,15.40
2018-12-17T06:58:08.676Z,12.57
2018-12-17T07:00:42.192Z,13.67
2018-12-17T07:03:12.182Z,12.83
2018-12-17T07:05:41.338Z,12.90
2018-12-17T07:08:10.701Z,12.67
2018-12-17T07:10:40.599Z,13.47
2018-12-17T07:13:10.177Z,12.90
2018-12-17T07:15:40.454Z,13.50
2018-12-17T07:18:10.985Z,12.63
2018-12-17T07:20:47.611Z,13.40
2018-12-17T07:23:17.172Z,13.83
2018-12-17T07:25:46.824Z,14.50
2018-12-17T07:28:16.067Z,13.30
2018-12-17T07:30:45.786Z,13.67
2018-12-17T07:33:15.604Z,13.17
2018-12-17T07:35:45.500Z,14.70
2018-12-17T07:38:14.720Z,14.00
2018-12-17T07:40:49.148Z,14.53
2018-12-17T07:43:26.225Z,15.40
2018-12-17T07:45:55.866Z,15.07
2018-12-17T07:48:26.888Z,14.97
2018-12-17T07:50:56.416Z,15.20
2018-12-17T07:53:25.720Z,14.60
2018-12-17T07:55:58.372Z,14.43
2018-12-17T07:58:28.542Z,13.37
2018-12-17T08:00:58.406Z,15.73
2018-12-17T08:03:28.949Z,16.30
2018-12-17T08:05:58.176Z,17.37
2018-12-17T08:08:27.416Z,19.37
2018-12-17T08:10:57.539Z,19.07
2018-12-17T08:13:27.224Z,22.93
2018-12-17T08:15:56.399Z,27.27
2018-12-17T08:18:27.600Z,24.03
2018-12-17T08:20:57.669Z,23.73
2018-12-17T08:23:26.897Z,21.53
2018-12-17T08:25:56.513Z,21.67
2018-12-17T08:28:26.307Z,20.47
2018-12-17T08:30:55.763Z,21.73
2018-12-17T08:33:25.086Z,20.93
2018-12-17T08:35:54.365Z,21.17
2018-12-17T08:38:24.084Z,20.53
2018-12-17T08:40:53.432Z,21.83
2018-12-17T08:43:25.089Z,27.60
2018-12-17T08:46:05.426Z,26.97
2018-12-17T08:48:39.202Z,25.50
2018-12-17T08:51:08.336Z,21.97
2018-12-17T08:53:37.496Z,23.90
2018-12-17T08:56:07.690Z,21.53
2018-12-17T08:58:36.981Z,21.80
2018-12-17T09:01:06.167Z,21.13
2018-12-17T09:03:35.469Z,21.67
2018-12-17T09:06:04.815Z,20.53
2018-12-17T09:08:34.042Z,21.33
2018-12-17T09:11:03.257Z,19.43
2018-12-17T09:13:32.603Z,19.67
2018-12-17T09:16:02.243Z,20.33
2018-12-17T09:18:31.652Z,19.47
2018-12-17T09:21:00.905Z,20.57
2018-12-17T09:23:30.530Z,19.80
2018-12-17T09:25:59.704Z,18.87
2018-12-17T09:28:29.169Z,21.53
2018-12-17T09:30:58.776Z,20.77
2018-12-17T09:33:28.963Z,20.13
2018-12-17T09:35:58.301Z,21.20
2018-12-17T09:38:27.501Z,20.57
2018-12-17T09:40:57.221Z,22.73
2018-12-17T09:43:26.465Z,20.47
2018-12-17T09:45:55.717Z,19.67
2018-12-17T09:48:24.893Z,20.60
2018-12-17T09:50:54.345Z,20.87
2018-12-17T09:53:23.785Z,19.30
2018-12-17T09:55:53.041Z,22.17
2018-12-17T09:58:22.246Z,19.93
2018-12-17T10:00:51.638Z,20.63
2018-12-17T10:03:20.747Z,21.83
2018-12-17T10:05:50.075Z,20.67
2018-12-17T10:08:19.995Z,20.50
2018-12-17T10:10:49.863Z,19.50
2018-12-17T10:13:19.181Z,21.47
2018-12-17T10:15:48.472Z,20.37
2018-12-17T10:18:17.878Z,19.90
2018-12-17T10:20:47.477Z,20.93
2018-12-17T10:23:26.630Z,19.13
2018-12-17T10:28:59.622Z,18.97
2018-12-17T10:31:29.776Z,21.23
2018-12-17T10:34:22.807Z,19.77
2018-12-17T10:36:52.049Z,21.13
2018-12-17T10:39:21.618Z,22.03
2018-12-17T10:41:55.808Z,21.03
2018-12-17T10:44:29.023Z,19.63
2018-12-17T10:46:58.323Z,20.00
2018-12-17T10:49:34.142Z,20.23
2018-12-17T10:52:04.385Z,17.60
2018-12-17T10:54:34.487Z,20.93
2018-12-17T10:57:04.737Z,21.00
2018-12-17T11:02:19.383Z,20.73
2018-12-17T11:04:57.311Z,19.47
2018-12-17T11:07:27.692Z,20.33
2018-12-17T11:09:57.086Z,18.20
2018-12-17T11:12:28.577Z,18.53
2018-12-17T11:14:58.147Z,19.90
2018-12-17T11:17:27.429Z,19.60
2018-12-17T11:19:56.920Z,19.20
2018-12-17T11:22:27.412Z,18.37
2018-12-17T11:24:56.522Z,22.00
2018-12-17T11:27:26.215Z,18.73
2018-12-17T11:29:56.566Z,18.57
2018-12-17T11:32:26.838Z,18.80
2018-12-17T11:34:56.072Z,18.33
2018-12-17T11:37:25.618Z,19.13
2018-12-17T11:39:55.037Z,17.87
2018-12-17T11:42:24.817Z,19.50
2018-12-17T11:44:54.274Z,18.47
2018-12-17T11:47:25.604Z,18.60
2018-12-17T11:49:54.824Z,18.20
2018-12-17T11:52:25.797Z,18.67
2018-12-17T11:54:55.981Z,18.33
2018-12-17T11:57:50.374Z,18.37
2018-12-17T12:00:22.960Z,19.70
2018-12-17T12:02:58.929Z,20.90
2018-12-17T12:05:24.591Z,20.23
2018-12-17T12:07:53.830Z,20.73
2018-12-17T12:10:23.070Z,20.93
2018-12-17T12:12:53.471Z,20.10
2018-12-17T12:15:23.452Z,19.93
2018-12-17T12:17:53.502Z,19.53
2018-12-17T12:20:22.839Z,19.13
2018-12-17T12:22:52.421Z,19.73
2018-12-17T12:25:21.738Z,20.90
2018-12-17T12:27:50.993Z,19.67
2018-12-17T12:30:21.065Z,18.93
2018-12-17T12:32:50.658Z,19.70
2018-12-17T12:35:20.489Z,20.43
2018-12-17T12:37:49.795Z,21.37
2018-12-17T12:40:19.385Z,19.73
2018-12-17T12:42:51.778Z,21.10
2018-12-17T12:45:21.379Z,20.07
2018-12-17T12:47:51.886Z,19.23
2018-12-17T12:50:21.066Z,19.30
2018-12-17T12:52:50.232Z,21.80
2018-12-17T12:55:19.460Z,20.33
2018-12-17T12:57:48.758Z,20.43
2018-12-17T13:00:18.311Z,21.57
2018-12-17T13:02:47.541Z,22.43
2018-12-17T13:05:16.742Z,21.37
2018-12-17T13:07:47.949Z,22.03
2018-12-17T13:10:18.353Z,20.97
2018-12-17T13:12:47.695Z,21.63
2018-12-17T13:15:16.925Z,22.67
2018-12-17T13:17:46.141Z,21.83
2018-12-17T13:20:15.542Z,24.80
2018-12-17T13:22:45.410Z,22.57
2018-12-17T13:25:19.826Z,21.77
2018-12-17T13:27:50.523Z,21.87
2018-12-17T13:30:22.415Z,20.23
2018-12-17T13:33:09.210Z,24.93
2018-12-17T13:35:38.901Z,23.47
2018-12-17T13:38:09.827Z,23.27
2018-12-17T13:40:39.154Z,22.03
2018-12-17T13:43:08.490Z,21.97
2018-12-17T13:45:38.461Z,22.80
2018-12-17T13:48:08.655Z,22.47
2018-12-17T13:50:39.933Z,23.30
2018-12-17T13:53:14.377Z,23.57
2018-12-17T13:55:43.744Z,25.37
2018-12-17T13:58:14.392Z,24.23
2018-12-17T14:00:43.923Z,26.67
2018-12-17T14:03:14.898Z,25.30
2018-12-17T14:05:44.186Z,24.37
2018-12-17T14:08:13.838Z,22.93
2018-12-17T14:10:48.429Z,25.07
2018-12-17T14:13:17.620Z,25.10
2018-12-17T14:15:51.595Z,24.73
2018-12-17T14:18:26.395Z,24.77
2018-12-17T14:21:01.066Z,24.23
2018-12-17T14:23:30.255Z,25.57
2018-12-17T14:25:59.785Z,26.50
2018-12-17T14:28:29.012Z,27.47
2018-12-17T14:30:58.171Z,26.80
2018-12-17T14:33:27.288Z,25.47
2018-12-17T14:36:01.866Z,26.80
2018-12-17T14:38:31.039Z,26.13
2018-12-17T14:41:00.912Z,27.37
2018-12-17T14:43:30.454Z,26.53
2018-12-17T14:45:59.654Z,25.70
2018-12-17T14:48:28.855Z,27.90
2018-12-17T14:50:58.127Z,27.23
2018-12-17T14:53:27.405Z,28.33
2018-12-17T14:55:56.686Z,28.17
2018-12-17T14:58:25.896Z,28.20
2018-12-17T15:00:55.036Z,29.17
2018-12-17T15:03:24.262Z,29.07
2018-12-17T15:05:53.509Z,30.33
2018-12-17T15:08:23.035Z,31.13
2018-12-17T15:10:52.292Z,29.20
2018-12-17T15:13:22.605Z,29.03
2018-12-17T15:15:51.990Z,31.73
2018-12-17T15:18:21.354Z,31.23
2018-12-17T15:20:50.905Z,31.37
2018-12-17T15:23:20.244Z,29.50
2018-12-17T15:25:50.430Z,27.40
2018-12-17T15:28:20.272Z,30.13
2018-12-17T15:30:49.545Z,28.70
2018-12-17T15:33:18.802Z,28.13
2018-12-17T15:35:48.897Z,28.37
2018-12-17T15:38:18.574Z,29.73
2018-12-17T15:40:47.922Z,25.77
2018-12-17T15:43:17.596Z,26.07
2018-12-17T15:45:49.316Z,28.47
2018-12-17T15:48:20.879Z,27.47
2018-12-17T15:50:50.142Z,28.10
2018-12-17T15:53:19.556Z,27.47
2018-12-17T15:55:49.158Z,27.97
2018-12-17T15:58:18.352Z,27.67
2018-12-17T16:00:47.533Z,28.60
2018-12-17T16:03:16.801Z,29.30
2018-12-17T16:05:46.467Z,29.93
2018-12-17T16:08:15.670Z,29.30
2018-12-17T16:10:44.949Z,29.93
2018-12-17T16:13:15.213Z,31.23
2018-12-17T16:15:44.785Z,28.67
2018-12-17T16:18:14.117Z,31.27
2018-12-17T16:20:44.800Z,31.03
2018-12-17T16:23:14.248Z,28.90
2018-12-17T16:25:43.478Z,30.20
2018-12-17T16:28:12.640Z,30.23
2018-12-17T16:30:42.216Z,31.67
2018-12-17T16:33:11.786Z,32.43
2018-12-17T16:35:41.069Z,31.20
2018-12-17T16:38:10.220Z,31.43
2018-12-17T16:43:35.987Z,28.90
2018-12-17T16:46:09.306Z,35.77
2018-12-17T16:48:40.074Z,31.47
2018-12-17T16:51:10.955Z,35.13
2018-12-17T16:53:40.170Z,31.17
2018-12-17T16:56:10.405Z,34.80
2018-12-17T16:58:39.674Z,35.13
2018-12-17T17:01:15.543Z,31.33
2018-12-17T17:03:45.594Z,36.50
2018-12-17T17:06:14.811Z,38.77
2018-12-17T17:08:44.077Z,34.50
2018-12-17T17:11:13.829Z,38.67
2018-12-17T17:13:43.117Z,38.93
2018-12-17T17:16:12.659Z,39.53
2018-12-17T17:18:41.825Z,35.70
2018-12-17T17:21:11.055Z,34.70
2018-12-17T17:23:40.226Z,33.73
2018-12-17T17:26:09.459Z,30.07
2018-12-17T17:28:38.597Z,32.73
2018-12-17T17:31:08.257Z,32.30
2018-12-17T17:33:37.487Z,33.40
2018-12-17T17:36:06.657Z,33.93
2018-12-17T17:38:37.006Z,33.43
2018-12-17T17:41:06.492Z,32.17
2018-12-17T17:43:35.656Z,34.87
2018-12-17T17:46:04.825Z,33.17
2018-12-17T17:48:33.959Z,34.60
2018-12-17T17:51:04.286Z,32.03
2018-12-17T17:53:33.432Z,33.80
2018-12-17T17:56:03.158Z,35.67
2018-12-17T17:58:32.526Z,34.53
2018-12-17T18:01:02.030Z,34.70
2018-12-17T18:03:32.382Z,32.67
2018-12-17T18:06:01.528Z,35.33
2018-12-17T18:08:31.043Z,34.77
2018-12-17T18:11:00.188Z,33.80
2018-12-17T18:13:29.346Z,32.10
2018-12-17T18:15:59.033Z,37.33
2018-12-17T18:18:28.395Z,36.17
2018-12-17T18:20:57.497Z,35.37
2018-12-17T18:23:26.691Z,32.97
2018-12-17T18:25:55.815Z,34.93
2018-12-17T18:28:25.035Z,34.47
2018-12-17T18:30:55.063Z,35.07
2018-12-17T18:33:24.573Z,36.03
2018-12-17T18:35:53.760Z,33.37
2018-12-17T18:38:22.955Z,32.93
2018-12-17T18:40:52.771Z,32.37
2018-12-17T18:43:22.210Z,36.97
2018-12-17T18:45:52.167Z,34.23
2018-12-17T18:48:22.356Z,35.83
2018-12-17T18:50:51.753Z,36.07
2018-12-17T18:53:20.990Z,37.33
2018-12-17T18:55:50.703Z,36.20
2018-12-17T18:58:19.906Z,34.80
2018-12-17T19:00:49.707Z,32.70
2018-12-17T19:03:19.257Z,34.90
2018-12-17T19:05:48.568Z,32.90
2018-12-17T19:08:18.015Z,35.20
2018-12-17T19:10:51.784Z,35.93
2018-12-17T19:13:21.998Z,35.10
2018-12-17T19:15:51.273Z,32.20
2018-12-17T19:18:20.650Z,35.60
2018-12-17T19:20:50.445Z,35.17
2018-12-17T19:23:25.013Z,34.77
2018-12-17T19:25:54.269Z,35.10
2018-12-17T19:28:23.577Z,34.80
2018-12-17T19:30:52.677Z,33.07
2018-12-17T19:33:21.934Z,34.37
2018-12-17T19:35:51.288Z,34.70
2018-12-17T19:38:20.643Z,33.03
2018-12-17T19:40:49.802Z,36.57
2018-12-17T19:43:19.004Z,34.17
2018-12-17T19:45:48.144Z,35.60
2018-12-17T19:48:17.350Z,36.70
2018-12-17T19:50:46.637Z,34.30
2018-12-17T19:53:15.773Z,33.40
2018-12-17T19:55:45.315Z,32.70
2018-12-17T19:58:14.441Z,37.77
2018-12-17T20:00:44.228Z,34.30
2018-12-17T20:03:13.564Z,34.33
2018-12-17T20:05:42.707Z,33.43
2018-12-17T20:08:11.890Z,35.20
2018-12-17T20:10:41.219Z,32.43
2018-12-17T20:13:10.381Z,37.53
2018-12-17T20:15:39.602Z,36.63
2018-12-17T20:18:08.885Z,33.07
2018-12-17T20:20:38.061Z,35.63
2018-12-17T20:23:07.218Z,33.40
2018-12-17T20:25:36.462Z,34.43
2018-12-17T20:28:05.674Z,34.07
2018-12-17T20:30:35.531Z,34.23
2018-12-17T20:33:04.827Z,36.93
2018-12-17T20:35:33.978Z,36.93
2018-12-17T20:38:04.561Z,34.80
2018-12-17T20:40:33.811Z,38.07
2018-12-17T20:43:03.016Z,35.03
2018-12-17T20:45:32.235Z,36.37
2018-12-17T20:48:02.048Z,33.73
2018-12-17T20:50:37.794Z,36.30
2018-12-17T20:53:09.766Z,32.30
2018-12-17T20:58:21.458Z,34.80
2018-12-17T21:00:50.671Z,32.67
2018-12-17T21:03:19.818Z,31.17
2018-12-17T21:05:48.971Z,32.33
2018-12-17T21:08:18.271Z,32.53
2018-12-17T21:10:47.453Z,31.13
2018-12-17T21:13:17.040Z,31.10
2018-12-17T21:15:46.497Z,29.07
2018-12-17T21:18:16.870Z,31.80
2018-12-17T21:20:46.204Z,33.97
2018-12-17T21:23:19.528Z,34.03
2018-12-17T21:25:50.045Z,35.47
2018-12-17T21:28:20.317Z,34.00
2018-12-17T21:30:49.924Z,33.57
2018-12-17T21:33:20.125Z,35.33
2018-12-17T21:35:49.367Z,33.03
2018-12-17T21:38:19.028Z,33.00
2018-12-17T21:40:48.443Z,31.17
2018-12-17T21:43:17.700Z,30.57
2018-12-17T21:45:47.001Z,30.87
2018-12-17T21:48:17.174Z,30.77
2018-12-17T21:50:46.962Z,31.57
2018-12-17T21:53:17.005Z,28.60
2018-12-17T21:55:46.315Z,31.93
2018-12-17T21:58:15.900Z,32.53
2018-12-17T22:00:45.398Z,31.20
2018-12-17T22:03:14.659Z,31.23
2018-12-17T22:07:08.720Z,31.57
2018-12-17T22:09:38.316Z,28.53
2018-12-17T22:12:08.383Z,30.67
2018-12-17T22:14:37.775Z,30.63
2018-12-17T22:17:08.428Z,29.63
2018-12-17T22:19:37.609Z,32.83
2018-12-17T22:22:07.010Z,32.20
2018-12-17T22:24:36.210Z,31.10
2018-12-17T22:27:05.509Z,30.77
2018-12-17T22:29:35.680Z,32.70
2018-12-17T22:32:04.962Z,30.57
2018-12-17T22:34:34.739Z,29.80
2018-12-17T22:37:04.000Z,30.50
2018-12-17T22:39:33.703Z,30.83
2018-12-17T22:42:04.276Z,30.33
2018-12-17T22:44:34.248Z,31.60
2018-12-17T22:47:04.410Z,28.60
2018-12-17T22:49:33.984Z,28.90
2018-12-17T22:52:03.242Z,26.50
2018-12-17T22:54:32.410Z,27.47
2018-12-17T22:57:02.035Z,25.93
2018-12-17T22:59:31.683Z,25.70
2018-12-17T23:02:01.707Z,26.00
2018-12-17T23:04:31.209Z,24.47
2018-12-17T23:07:00.461Z,25.53
2018-12-17T23:09:40.970Z,24.43
2018-12-17T23:12:21.397Z,26.17
2018-12-17T23:15:01.562Z,25.23
2018-12-17T23:17:40.777Z,27.50
2018-12-17T23:20:12.168Z,29.13
2018-12-17T23:22:44.550Z,27.13
2018-12-17T23:25:16.499Z,29.20
2018-12-17T23:27:50.417Z,27.60
2018-12-17T23:30:22.685Z,29.47
2018-12-17T23:32:52.320Z,28.90
2018-12-17T23:35:21.591Z,25.63
2018-12-17T23:37:52.519Z,28.00
2018-12-17T23:40:22.382Z,26.03
2018-12-17T23:42:51.625Z,27.30
2018-12-17T23:45:20.999Z,28.30
2018-12-17T23:47:51.084Z,26.33
2018-12-17T23:50:21.181Z,27.07
2018-12-17T23:52:50.714Z,26.80
2018-12-17T23:55:20.008Z,27.10
2018-12-17T23:57:50.711Z,27.43
